Time;durP1;ratioP1;P1;durP2;ratioP2;P2;SDS_P1;SDS_P2;PMS_P1;PMS_P2;Temp;Humidity;BMP_temperature;BMP_pressure;BME280_temperature;BME280_humidity;BME280_pressure;Samples;Min_cycle;Max_cycle;Signal;HPM_P1;HPM_P2
2022/03/22 11:56:38;;;;;;;3.20;2.17;;;10.20;55.10;;;;;;1973040;73;26311;-45
2022/03/22 11:59:10;;;;;;;11.70;2.70;;;10.20;55.80;;;;;;1946636;73;21159;-46
2022/03/22 12:01:40;;;;;;;9.48;2.62;;;10.20;56.20;;;;;;1948445;73;20991;-46
2022/03/22 12:04:18;;;;;;;11.57;5.00;;;10.30;55.30;;;;;;1948502;73;21076;-46
2022/03/22 12:06:48;;;;;;;40.12;7.95;;;10.30;54.30;;;;;;1948331;73;21034;-48
2022/03/22 12:09:18;;;;;;;11.35;2.87;;;10.30;54.40;;;;;;1948337;73;21023;-45
2022/03/22 12:11:50;;;;;;;3.52;2.37;;;10.20;54.10;;;;;;1948352;73;21445;-45
2022/03/22 12:14:27;;;;;;;6.37;2.70;;;10.20;54.60;;;;;;1948412;73;21019;-47
2022/03/22 12:16:57;;;;;;;25.17;4.53;;;10.20;53.60;;;;;;1948350;73;21081;-46
2022/03/22 12:19:31;;;;;;;3.72;2.20;;;10.30;54.20;;;;;;1947158;73;21050;-47
2022/03/22 12:22:02;;;;;;;7.67;2.33;;;10.40;54.40;;;;;;1948391;73;21018;-48
2022/03/22 12:24:36;;;;;;;7.08;2.08;;;10.40;53.70;;;;;;1948405;73;21084;-47
2022/03/22 12:27:08;;;;;;;3.65;2.27;;;10.30;53.00;;;;;;1946649;73;21564;-46
2022/03/22 12:29:40;;;;;;;;;;;10.20;53.20;;;;;;1951204;73;21496;-47
2022/03/22 12:32:17;;;;;;;6.22;2.22;;;10.10;53.20;;;;;;1948336;73;20182;-46
2022/03/22 12:34:47;;;;;;;2.70;1.85;;;10.20;52.60;;;;;;1948425;73;21481;-46
2022/03/22 12:37:18;;;;;;;2.52;2.00;;;10.20;52.30;;;;;;1948343;73;21077;-49
2022/03/22 12:39:48;;;;;;;1.52;1.25;;;10.20;52.50;;;;;;1948299;73;21060;-47
2022/03/22 12:42:18;;;;;;;2.50;1.40;;;10.20;52.60;;;;;;1948322;73;21066;-48
2022/03/22 12:44:47;;;;;;;11.55;2.40;;;10.30;53.30;;;;;;1948467;73;21073;-48
2022/03/22 12:47:19;;;;;;;2.05;1.60;;;10.40;52.40;;;;;;1948257;73;21070;-47
2022/03/22 12:49:49;;;;;;;8.38;2.12;;;10.30;52.90;;;;;;1948511;73;21019;-46
2022/03/22 12:52:18;;;;;;;2.60;1.45;;;10.30;53.00;;;;;;1948614;73;21062;-48
2022/03/22 12:54:48;;;;;;;3.22;1.50;;;10.20;52.40;;;;;;1947778;73;21046;-46
2022/03/22 12:57:18;;;;;;;7.90;2.70;;;10.20;52.90;;;;;;1935933;73;21090;-46
2022/03/22 12:59:47;;;;;;;2.77;2.55;;;10.20;52.70;;;;;;1935796;74;21079;-48
2022/03/22 13:02:16;;;;;;;4.37;2.42;;;10.20;52.20;;;;;;1935511;74;21023;-48
2022/03/22 13:04:49;;;;;;;7.72;3.52;;;10.10;52.00;;;;;;1935666;74;21074;-47
2022/03/22 13:07:25;;;;;;;2.92;2.12;;;10.10;52.90;;;;;;1935178;74;21042;-47
2022/03/22 13:12:46;;;;;;;2.02;1.92;;;10.10;51.20;;;;;;1935133;74;21015;-46
2022/03/22 13:15:17;;;;;;;6.97;2.47;;;10.00;51.00;;;;;;1935266;74;21011;-45
2022/03/22 13:17:49;;;;;;;4.20;1.77;;;9.90;51.40;;;;;;1935707;74;20995;-47
2022/03/22 13:20:28;;;;;;;3.60;2.00;;;9.80;51.90;;;;;;1935929;74;21043;-48
2022/03/22 13:23:00;;;;;;;6.37;2.12;;;9.70;52.00;;;;;;1935898;74;21071;-46
2022/03/22 13:25:35;;;;;;;5.22;2.05;;;9.80;51.40;;;;;;1934625;74;21043;-47
2022/03/22 13:28:13;;;;;;;3.72;2.33;;;9.70;51.00;;;;;;1935796;74;21019;-46
2022/03/22 13:30:45;;;;;;;6.33;1.92;;;9.70;50.70;;;;;;1934959;74;21039;-45
2022/03/22 13:33:16;;;;;;;4.25;2.58;;;9.70;50.90;;;;;;1935763;74;21000;-46
2022/03/22 13:35:56;;;;;;;5.40;2.27;;;9.60;49.40;;;;;;1935829;74;21000;-46
2022/03/22 13:38:27;;;;;;;4.05;2.33;;;9.60;50.10;;;;;;1930338;74;20999;-47
2022/03/22 13:41:03;;;;;;;7.15;3.00;;;9.70;49.20;;;;;;1935675;74;21084;-46
